Time;durP1;ratioP1;P1;durP2;ratioP2;P2;SDS_P1;SDS_P2;PMS_P1;PMS_P2;Temp;Humidity;BMP_temperature;BMP_pressure;BME280_temperature;BME280_humidity;BME280_pressure;Samples;Min_cycle;Max_cycle;Signal;HPM_P1;HPM_P2
2022/12/25 00:00:23;;;;;;;2.30;1.10;;;;;;;19.33;54.94;100414.56;4991272;28;20181;-64
2022/12/25 00:02:49;;;;;;;3.53;1.30;;;;;;;19.33;54.88;100423.13;4988819;28;20182;-64
2022/12/25 00:05:14;;;;;;;4.53;1.67;;;;;;;19.31;54.87;100422.69;4988757;28;20166;-63
2022/12/25 00:07:40;;;;;;;3.77;1.50;;;;;;;19.34;55.10;100424.78;4988973;28;20170;-64
2022/12/25 00:10:06;;;;;;;5.73;1.30;;;;;;;19.36;54.77;100425.22;4973175;28;20235;-64
2022/12/25 00:12:32;;;;;;;3.27;1.60;;;;;;;19.29;55.04;100427.13;4988777;28;20274;-64
2022/12/25 00:14:58;;;;;;;2.20;1.20;;;;;;;19.33;54.67;100423.13;4990814;28;20436;-64
2022/12/25 00:17:23;;;;;;;1.90;0.80;;;;;;;19.32;55.17;100432.09;4955066;28;20479;-64
2022/12/25 00:19:48;;;;;;;3.20;1.37;;;;;;;19.34;54.93;100426.81;4987767;28;20177;-64
2022/12/25 00:22:14;;;;;;;2.50;1.33;;;;;;;19.33;55.35;100423.13;4974249;28;20389;-64
2022/12/25 00:24:39;;;;;;;2.70;1.30;;;;;;;19.36;54.79;100428.09;4992131;28;20286;-64
2022/12/25 00:27:05;;;;;;;5.90;1.50;;;;;;;19.32;54.79;100421.47;4974642;28;20170;-64
2022/12/25 00:29:30;;;;;;;3.43;1.37;;;;;;;19.34;55.17;100424.78;4992023;28;20563;-64
2022/12/25 00:31:55;;;;;;;2.60;1.23;;;;;;;19.33;55.22;100426.00;4993855;28;20185;-64
2022/12/25 00:34:21;;;;;;;3.00;1.33;;;;;;;19.33;54.96;100419.44;4991591;28;20170;-64
2022/12/25 00:36:49;;;;;;;3.33;1.40;;;;;;;19.33;54.87;100410.84;4991977;28;20220;-64
2022/12/25 00:39:15;;;;;;;2.47;1.23;;;;;;;19.32;54.98;100412.88;4993654;28;20213;-64
2022/12/25 00:44:24;;;;;;;2.50;1.20;;;;;;;19.29;55.28;100405.06;4975600;28;20547;-64
2022/12/25 00:46:50;;;;;;;2.80;1.33;;;;;;;19.34;55.16;100421.09;4972661;28;20445;-65
2022/12/25 00:49:15;;;;;;;4.10;1.70;;;;;;;19.32;55.08;100407.16;4970681;28;20633;-64
2022/12/25 00:51:41;;;;;;;2.70;1.30;;;;;;;19.31;55.09;100405.50;4972355;28;20579;-64
2022/12/25 00:54:06;;;;;;;2.83;1.20;;;;;;;19.31;54.94;100407.56;4980256;28;20192;-64
2022/12/25 00:56:32;;;;;;;3.33;1.13;;;;;;;19.33;55.22;100408.84;4973801;28;20313;-64
2022/12/25 00:58:57;;;;;;;2.90;1.60;;;;;;;19.28;54.89;100411.19;4991443;28;20170;-64
2022/12/25 01:01:23;;;;;;;2.87;1.40;;;;;;;19.32;55.49;100412.06;4973700;28;20174;-64
2022/12/25 01:03:48;;;;;;;3.13;1.30;;;;;;;19.32;54.80;100414.94;4994295;28;20189;-64
2022/12/25 01:06:13;;;;;;;3.50;1.00;;;;;;;19.30;54.76;100409.59;4991016;28;20996;-64
2022/12/25 01:10:21;;;;;;;2.43;1.30;;;;;;;19.30;54.85;100414.47;4957735;28;20182;-64
2022/12/25 01:11:28;;;;;;;3.30;1.13;;;;;;;19.30;54.79;100418.16;4991012;28;20652;-64
2022/12/25 01:13:53;;;;;;;2.10;1.03;;;;;;;19.28;54.65;100414.03;4975416;28;20448;-64
2022/12/25 01:16:19;;;;;;;2.20;1.20;;;;;;;19.30;55.15;100421.03;4974351;28;20537;-64
2022/12/25 01:18:45;;;;;;;2.90;1.40;;;;;;;19.29;54.87;100418.56;4987136;28;20208;-64
2022/12/25 01:21:12;;;;;;;3.23;2.13;;;;;;;19.32;54.87;100418.59;4991367;28;20588;-64
2022/12/25 01:23:37;;;;;;;2.60;1.30;;;;;;;19.28;54.97;100409.16;4973898;28;20429;-64
2022/12/25 01:26:07;;;;;;;2.20;1.33;;;;;;;19.28;54.99;100417.75;4973654;28;20413;-64
2022/12/25 01:28:32;;;;;;;2.70;1.50;;;;;;;19.27;55.03;100410.34;4975449;28;20673;-64
2022/12/25 01:30:57;;;;;;;1.90;1.10;;;;;;;19.27;54.95;100418.13;4973467;28;20519;-64
2022/12/25 01:33:23;;;;;;;2.10;1.13;;;;;;;19.28;55.10;100412.00;4973038;28;20173;-64
2022/12/25 01:35:48;;;;;;;2.73;1.40;;;;;;;19.26;55.09;100420.16;4990821;28;20837;-64
2022/12/25 01:38:14;;;;;;;2.40;1.27;;;;;;;19.25;55.14;100417.66;4991504;28;20563;-64
2022/12/25 01:40:39;;;;;;;1.77;0.93;;;;;;;19.25;55.04;100415.63;4985041;28;20250;-64
2022/12/25 01:43:31;;;;;;;2.70;1.20;;;;;;;19.27;54.87;100427.50;4990981;28;20176;-64
2022/12/25 01:45:56;;;;;;;2.50;1.27;;;;;;;19.28;54.93;100423.47;4989000;28;20688;-64
2022/12/25 01:48:26;;;;;;;2.23;1.30;;;;;;;19.25;55.43;100417.66;4973254;28;20482;-64
2022/12/25 01:50:59;;;;;;;3.23;1.30;;;;;;;19.24;54.88;100418.88;4959444;28;20173;-64
2022/12/25 01:53:25;;;;;;;1.90;1.03;;;;;;;19.26;54.91;100414.41;4958785;28;20430;-64
2022/12/25 01:55:53;;;;;;;2.70;1.60;;;;;;;19.27;54.80;100409.53;4952708;28;20896;-64
2022/12/25 01:58:18;;;;;;;1.90;0.97;;;;;;;19.28;54.84;100409.16;4972681;28;20241;-64
2022/12/25 02:00:44;;;;;;;2.33;1.20;;;;;;;19.26;55.09;100400.09;4990290;28;20408;-64
2022/12/25 02:03:09;;;;;;;2.47;1.00;;;;;;;19.26;55.13;100405.03;4981132;28;20260;-64
2022/12/25 02:05:35;;;;;;;2.70;1.20;;;;;;;19.25;55.06;100409.91;4955633;28;20545;-64
2022/12/25 02:08:07;;;;;;;2.20;1.20;;;;;;;19.24;54.82;100398.84;4974913;28;20295;-64
2022/12/25 02:10:32;;;;;;;3.30;1.47;;;;;;;19.25;55.03;100389.88;4972951;28;20330;-64
2022/12/25 02:12:58;;;;;;;2.97;1.30;;;;;;;19.28;54.87;100385.41;4990430;28;20421;-63
2022/12/25 02:15:28;;;;;;;4.63;1.20;;;;;;;19.24;55.12;100390.25;4975169;28;20193;-64
2022/12/25 02:18:08;;;;;;;3.20;1.33;;;;;;;19.23;54.75;100383.72;4973289;28;20960;-64
2022/12/25 02:20:43;;;;;;;2.00;1.00;;;;;;;19.24;54.92;100387.38;4960093;28;20940;-63
2022/12/25 02:23:11;;;;;;;2.77;1.10;;;;;;;19.23;55.00;100397.19;4970940;28;20501;-64
2022/12/25 02:26:10;;;;;;;2.77;1.20;;;;;;;19.19;55.02;100379.94;4987286;28;20450;-64
2022/12/25 02:28:55;;;;;;;2.53;1.20;;;;;;;19.22;55.35;100387.75;4989856;28;20451;-64
2022/12/25 02:31:52;;;;;;;3.67;0.97;;;;;;;19.23;55.00;100397.19;4958559;28;20428;-64
2022/12/25 02:34:46;;;;;;;2.53;1.20;;;;;;;19.24;54.94;100399.69;4979438;28;20515;-64
2022/12/25 02:37:18;;;;;;;2.53;1.30;;;;;;;19.25;54.70;100407.03;4999286;28;21103;-64
2022/12/25 02:40:08;;;;;;;1.93;1.00;;;;;;;19.19;54.83;100402.81;4972675;28;20441;-64
2022/12/25 03:07:50;;;;;;;3.20;1.40;;;;;;;19.16;55.23;100368.44;4947781;28;20564;-64
2022/12/25 03:13:17;;;;;;;3.03;1.20;;;;;;;19.16;55.01;100354.94;4976978;28;20196;-64
2022/12/25 03:18:27;;;;;;;2.27;1.20;;;;;;;19.17;54.94;100358.63;4989373;28;20553;-64
2022/12/25 03:29:06;;;;;;;2.40;1.33;;;;;;;19.14;55.13;100365.09;4974529;28;20411;-64
2022/12/25 03:32:04;;;;;;;2.50;1.10;;;;;;;19.17;54.92;100367.22;4971796;28;20774;-64
2022/12/25 04:36:27;;;;;;;2.27;1.10;;;;;;;19.12;54.90;100305.38;4990533;28;20443;-64
2022/12/25 04:38:53;;;;;;;2.10;1.23;;;;;;;19.13;54.97;100307.06;4987668;28;20924;-64
2022/12/25 04:41:18;;;;;;;2.10;1.10;;;;;;;19.12;54.89;100302.53;4987398;28;20808;-64
2022/12/25 04:43:43;;;;;;;2.10;1.07;;;;;;;19.14;54.92;100305.84;4989595;28;20190;-64
2022/12/25 04:46:09;;;;;;;2.33;1.10;;;;;;;19.12;55.33;100305.38;4987535;28;20194;-64
2022/12/25 04:48:34;;;;;;;2.10;1.00;;;;;;;19.13;54.81;100295.63;4971381;28;20181;-64
2022/12/25 04:51:17;;;;;;;2.40;1.33;;;;;;;19.11;54.84;100302.94;4969537;28;20199;-64
2022/12/25 04:53:43;;;;;;;1.87;0.90;;;;;;;19.13;54.91;100298.47;4988023;28;20193;-65
2022/12/25 04:56:08;;;;;;;2.77;1.30;;;;;;;19.12;54.88;100296.81;5000119;28;20480;-63
2022/12/25 04:58:34;;;;;;;3.00;1.10;;;;;;;19.14;54.76;100294.41;5007800;28;20220;-64
2022/12/25 05:01:00;;;;;;;2.30;1.00;;;;;;;19.10;54.74;100290.66;4990208;28;20646;-64
2022/12/25 05:03:26;;;;;;;2.30;1.27;;;;;;;19.12;55.20;100293.94;4968176;28;20186;-64
2022/12/25 05:05:51;;;;;;;1.93;1.10;;;;;;;19.11;55.10;100295.16;4993454;28;20477;-64
2022/12/25 05:08:17;;;;;;;2.13;1.10;;;;;;;19.10;54.83;100289.81;4981120;28;20189;-64
2022/12/25 05:10:42;;;;;;;3.63;1.30;;;;;;;19.11;54.81;100286.56;4994281;28;20196;-64
2022/12/25 05:13:07;;;;;;;2.43;1.03;;;;;;;19.13;54.76;100295.63;5010995;28;20180;-63
2022/12/25 05:15:33;;;;;;;2.03;1.03;;;;;;;19.12;54.87;100281.69;5008322;28;20182;-64
2022/12/25 05:17:58;;;;;;;2.60;1.10;;;;;;;19.11;54.88;100280.03;4992426;28;20287;-63
2022/12/25 05:20:24;;;;;;;1.70;0.90;;;;;;;19.12;55.09;100271.03;4991047;28;20548;-64
2022/12/25 05:22:49;;;;;;;1.80;0.90;;;;;;;19.11;54.79;100274.31;5001213;28;20553;-64
2022/12/25 05:25:15;;;;;;;1.80;0.90;;;;;;;19.10;54.72;100272.66;5010800;28;20173;-64
2022/12/25 05:27:40;;;;;;;2.23;1.10;;;;;;;19.10;54.88;100269.78;5008599;28;20217;-64
2022/12/25 05:30:06;;;;;;;1.60;0.80;;;;;;;19.12;54.98;100258.78;4974226;28;20169;-64
2022/12/25 05:32:32;;;;;;;2.50;1.07;;;;;;;19.13;55.19;100258.41;4975167;28;20190;-64
2022/12/25 05:34:59;;;;;;;3.20;1.10;;;;;;;19.13;54.65;100260.44;4959698;28;20498;-64
2022/12/25 05:37:25;;;;;;;1.50;0.90;;;;;;;19.09;55.04;100253.81;4974429;28;20259;-64
2022/12/25 05:39:50;;;;;;;2.30;1.00;;;;;;;19.13;54.66;100246.97;4992811;28;20837;-64
2022/12/25 05:42:15;;;;;;;2.60;1.23;;;;;;;19.11;54.65;100243.66;4976106;28;20181;-64
2022/12/25 05:44:41;;;;;;;1.70;0.90;;;;;;;19.09;54.93;100245.25;4991053;28;20162;-64
2022/12/25 05:47:06;;;;;;;2.13;1.23;;;;;;;19.14;55.07;100244.91;4991127;28;20547;-64
2022/12/25 05:49:32;;;;;;;1.90;0.90;;;;;;;19.11;54.86;100237.94;4956472;28;20529;-63
2022/12/25 05:51:57;;;;;;;1.67;0.80;;;;;;;19.14;54.79;100237.16;4971426;28;20509;-64
2022/12/25 05:54:23;;;;;;;2.93;1.20;;;;;;;19.16;54.71;100231.06;4982968;28;20545;-63
2022/12/25 05:56:48;;;;;;;1.70;0.87;;;;;;;19.14;54.82;100222.84;4988298;28;20730;-64
2022/12/25 05:59:13;;;;;;;1.80;1.07;;;;;;;19.12;54.92;100222.41;4989263;28;20660;-63
2022/12/25 06:01:39;;;;;;;2.17;1.00;;;;;;;19.11;54.72;100235.06;4992723;28;20200;-63
2022/12/25 06:04:04;;;;;;;1.97;1.00;;;;;;;19.10;54.91;100239.16;4973126;28;20174;-63
2022/12/25 06:06:30;;;;;;;2.27;1.20;;;;;;;19.12;54.78;100230.97;4975362;28;20544;-64
2022/12/25 06:08:55;;;;;;;3.03;1.53;;;;;;;19.11;54.58;100229.34;4990488;28;20218;-64
2022/12/25 06:11:21;;;;;;;1.90;0.90;;;;;;;19.10;54.80;100227.69;4972918;28;20189;-64
2022/12/25 06:13:50;;;;;;;1.70;1.10;;;;;;;19.11;55.01;100220.75;4986863;28;20174;-64
2022/12/25 06:16:15;;;;;;;2.13;0.90;;;;;;;19.14;55.13;100228.59;4975347;28;20667;-64
2022/12/25 06:18:45;;;;;;;2.00;1.13;;;;;;;19.11;54.75;100237.94;4990300;28;20456;-64
2022/12/25 06:21:11;;;;;;;2.10;1.00;;;;;;;19.15;55.01;100233.09;4992164;28;20192;-64
2022/12/25 06:23:37;;;;;;;1.80;0.90;;;;;;;19.14;54.59;100228.59;4972717;28;20810;-64
2022/12/25 06:26:04;;;;;;;2.27;1.10;;;;;;;19.14;54.84;100236.31;4989569;28;20424;-64
2022/12/25 06:28:30;;;;;;;1.90;0.90;;;;;;;19.14;54.55;100242.06;4955478;28;20169;-65
2022/12/25 06:30:55;;;;;;;1.80;0.90;;;;;;;19.16;54.63;100242.50;4973900;28;20441;-64
2022/12/25 06:33:21;;;;;;;1.80;1.10;;;;;;;19.15;54.76;100238.81;4988917;28;20170;-64
2022/12/25 06:35:46;;;;;;;2.00;1.00;;;;;;;19.12;54.86;100242.44;4990842;28;20185;-64
2022/12/25 06:38:11;;;;;;;2.03;0.90;;;;;;;19.15;54.67;100238.81;4988961;28;20322;-64
2022/12/25 06:40:37;;;;;;;2.13;1.10;;;;;;;19.12;54.95;100238.75;4971771;28;20186;-64
2022/12/25 06:43:02;;;;;;;2.47;1.20;;;;;;;19.11;54.95;100235.06;4989671;28;20182;-64
2022/12/25 06:45:28;;;;;;;2.57;1.00;;;;;;;19.15;54.62;100240.84;4994875;28;20212;-64
2022/12/25 06:47:53;;;;;;;1.60;0.70;;;;;;;19.14;54.65;100240.03;5009691;28;20555;-63
2022/12/25 06:50:19;;;;;;;2.27;1.23;;;;;;;19.14;54.69;100242.88;5007767;28;20181;-64
2022/12/25 06:52:44;;;;;;;1.70;0.97;;;;;;;19.14;54.26;100234.31;5008307;28;20272;-65
2022/12/25 06:55:10;;;;;;;1.77;0.90;;;;;;;19.10;54.74;100244.03;4991797;28;20162;-64
2022/12/25 06:57:35;;;;;;;2.77;1.00;;;;;;;19.13;54.55;100241.25;4983841;28;20229;-64
2022/12/25 07:00:01;;;;;;;2.73;1.10;;;;;;;19.14;54.68;100240.03;4989838;28;20288;-64
2022/12/25 07:02:26;;;;;;;2.13;1.20;;;;;;;19.15;54.91;100235.94;4989644;28;20174;-64
2022/12/25 07:04:52;;;;;;;2.80;1.20;;;;;;;19.12;54.75;100233.03;4990131;28;20322;-64
2022/12/25 07:07:17;;;;;;;1.80;0.90;;;;;;;19.13;54.84;100237.53;5008023;28;20181;-64
2022/12/25 07:09:43;;;;;;;2.17;1.07;;;;;;;19.12;54.65;100230.97;5005164;28;20185;-64
2022/12/25 07:12:19;;;;;;;1.93;1.00;;;;;;;19.13;54.59;100232.66;4991955;28;20186;-65
2022/12/25 07:14:47;;;;;;;2.43;1.20;;;;;;;19.14;54.65;100228.59;4949965;28;20174;-64
2022/12/25 07:17:13;;;;;;;2.10;1.10;;;;;;;19.14;54.57;100237.16;4970102;28;20450;-64
2022/12/25 07:19:38;;;;;;;1.63;0.87;;;;;;;19.17;54.39;100224.13;4939135;28;20904;-64
2022/12/25 07:22:04;;;;;;;1.93;1.00;;;;;;;19.15;54.55;100215.91;4991413;28;20547;-64
2022/12/25 07:24:29;;;;;;;2.73;1.20;;;;;;;19.13;54.61;100209.75;4972082;28;20186;-64
2022/12/25 07:26:55;;;;;;;1.80;0.90;;;;;;;19.17;54.35;100209.81;4991372;28;20190;-64
2022/12/25 07:29:20;;;;;;;2.37;1.07;;;;;;;19.15;54.49;100218.78;4988543;28;20184;-64
2022/12/25 07:31:46;;;;;;;1.50;0.80;;;;;;;19.14;54.76;100217.13;4969336;28;20254;-64
2022/12/25 07:34:11;;;;;;;1.77;0.93;;;;;;;19.15;54.50;100215.06;4969091;28;20170;-65
2022/12/25 07:36:37;;;;;;;1.90;0.90;;;;;;;19.16;54.57;100236.78;4971116;28;20190;-64
2022/12/25 07:39:02;;;;;;;1.63;0.80;;;;;;;19.12;54.86;100230.97;4986009;28;20174;-64
2022/12/25 07:41:28;;;;;;;2.00;0.83;;;;;;;19.14;54.56;100240.03;4993078;28;20242;-64
2022/12/25 07:43:53;;;;;;;2.10;1.10;;;;;;;19.15;54.79;100246.56;5006022;28;20640;-64
2022/12/25 07:46:19;;;;;;;2.47;1.23;;;;;;;19.14;55.00;100256.34;4988659;28;20744;-64
2022/12/25 07:48:45;;;;;;;1.70;1.00;;;;;;;19.14;54.40;100254.34;4993329;28;20226;-64
2022/12/25 07:51:12;;;;;;;2.67;1.00;;;;;;;19.16;54.94;100251.91;4971580;28;20967;-64
2022/12/25 07:53:37;;;;;;;1.97;1.00;;;;;;;19.18;54.41;100260.94;4989692;28;20196;-64
2022/12/25 07:56:05;;;;;;;1.87;0.83;;;;;;;19.20;54.41;100261.38;4974036;28;20513;-64
2022/12/25 07:58:30;;;;;;;1.83;0.90;;;;;;;19.17;54.47;100253.53;4952038;28;20210;-64
2022/12/25 08:01:01;;;;;;;1.93;1.00;;;;;;;19.15;54.58;100255.97;4986195;28;20437;-64
2022/12/25 08:03:26;;;;;;;1.70;0.80;;;;;;;19.16;54.65;100266.22;4988630;28;20166;-64
2022/12/25 08:05:52;;;;;;;2.60;1.10;;;;;;;19.13;54.56;100274.75;4973327;28;21008;-64
2022/12/25 08:08:17;;;;;;;2.43;1.00;;;;;;;19.16;54.51;100266.22;4988791;28;20182;-64
2022/12/25 08:10:46;;;;;;;2.00;1.00;;;;;;;19.15;54.53;100261.69;4988637;28;20200;-64
2022/12/25 08:13:12;;;;;;;1.90;0.83;;;;;;;19.16;54.91;100257.63;4972594;28;20187;-65
2022/12/25 08:15:37;;;;;;;2.93;1.00;;;;;;;19.15;54.72;100258.84;4956355;28;20430;-64
2022/12/25 08:18:03;;;;;;;1.90;0.90;;;;;;;19.11;54.81;100245.69;4951685;28;20573;-64
2022/12/25 08:20:28;;;;;;;1.93;1.13;;;;;;;19.14;54.56;100240.03;4976682;28;20186;-64
2022/12/25 08:22:54;;;;;;;1.53;0.70;;;;;;;19.14;54.49;100234.31;4990720;28;20201;-64
2022/12/25 08:25:19;;;;;;;1.80;0.90;;;;;;;19.17;54.76;100222.06;4988675;28;20190;-64
2022/12/25 08:27:44;;;;;;;2.23;1.00;;;;;;;19.14;54.40;100199.97;4990468;28;20273;-65
2022/12/25 08:30:10;;;;;;;1.70;0.97;;;;;;;19.15;54.49;100190.16;4988456;28;20552;-65
2022/12/25 08:32:35;;;;;;;2.90;0.97;;;;;;;19.13;54.55;100198.31;4995433;28;20551;-65
2022/12/25 08:35:01;;;;;;;2.07;1.00;;;;;;;19.15;54.48;100207.31;5007320;28;20185;-64
2022/12/25 08:37:28;;;;;;;2.03;0.90;;;;;;;19.16;54.51;100219.63;4987789;28;20213;-64
2022/12/25 08:39:54;;;;;;;1.80;0.90;;;;;;;19.17;54.23;100212.66;4972602;28;20182;-65
2022/12/25 08:42:19;;;;;;;3.00;0.90;;;;;;;19.21;54.45;100222.13;5003135;28;20450;-64
2022/12/25 08:44:44;;;;;;;1.70;0.80;;;;;;;19.18;54.41;100212.28;4993785;28;20185;-64
2022/12/25 08:47:11;;;;;;;1.90;1.00;;;;;;;19.20;54.34;100221.31;5004763;28;20202;-64
2022/12/25 08:49:36;;;;;;;2.00;0.83;;;;;;;19.20;54.71;100218.44;4991780;28;20186;-64
2022/12/25 08:52:02;;;;;;;2.13;0.87;;;;;;;19.20;54.40;100221.31;4991602;28;20424;-65
2022/12/25 08:54:27;;;;;;;2.57;1.20;;;;;;;19.18;54.52;100235.19;5007854;28;20184;-65
2022/12/25 08:56:52;;;;;;;1.83;1.00;;;;;;;19.21;54.42;100228.66;4990120;28;20245;-65
2022/12/25 08:59:18;;;;;;;1.87;1.07;;;;;;;19.22;54.71;100236.06;4983831;28;20191;-64
2022/12/25 09:01:43;;;;;;;1.57;0.80;;;;;;;19.18;54.68;100240.91;4973948;28;20240;-64
2022/12/25 09:04:09;;;;;;;1.90;0.87;;;;;;;19.20;54.41;100241.34;4971959;28;20182;-64
2022/12/25 09:06:34;;;;;;;1.70;1.00;;;;;;;19.22;54.71;100247.50;4968423;28;20178;-64
2022/12/25 09:09:00;;;;;;;2.13;1.07;;;;;;;19.21;54.93;100247.91;4972087;28;20181;-64
2022/12/25 09:11:25;;;;;;;1.70;0.90;;;;;;;19.21;54.65;100256.47;4973932;28;20194;-64
2022/12/25 09:13:50;;;;;;;2.30;0.90;;;;;;;19.24;54.36;100255.72;4971819;28;20175;-64
2022/12/25 09:16:19;;;;;;;1.80;0.90;;;;;;;19.19;54.46;100254.00;4971630;28;20175;-64
2022/12/25 09:18:44;;;;;;;1.80;0.90;;;;;;;19.19;54.84;100254.00;4954464;28;20221;-64
2022/12/25 09:21:10;;;;;;;2.10;0.90;;;;;;;19.20;54.39;100249.91;4974216;28;20437;-64
2022/12/25 09:23:39;;;;;;;1.50;0.53;;;;;;;19.20;54.69;100244.19;4968001;28;20548;-64
2022/12/25 09:26:05;;;;;;;2.23;0.67;;;;;;;19.20;54.34;100244.19;4972608;28;20442;-64
2022/12/25 09:28:31;;;;;;;1.60;0.73;;;;;;;19.21;54.71;100245.84;4954473;28;20430;-65
2022/12/25 09:30:56;;;;;;;2.10;0.93;;;;;;;19.20;54.47;100249.91;4970230;28;20410;-64
2022/12/25 09:33:22;;;;;;;2.37;1.10;;;;;;;19.23;54.50;100243.47;4971390;28;20818;-65
2022/12/25 09:35:57;;;;;;;1.70;0.90;;;;;;;19.21;54.39;100242.97;4972891;28;20182;-64
2022/12/25 09:38:23;;;;;;;2.23;1.00;;;;;;;19.20;54.58;100235.59;4971453;28;20194;-64
2022/12/25 09:41:14;;;;;;;1.97;0.97;;;;;;;19.23;54.48;100226.28;4971332;28;20981;-64
2022/12/25 09:43:43;;;;;;;2.97;1.40;;;;;;;19.20;54.46;100218.44;4973416;28;20187;-64
2022/12/25 09:46:22;;;;;;;1.93;0.97;;;;;;;19.20;55.42;100224.16;4954051;28;20595;-64
2022/12/25 09:49:06;;;;;;;3.43;1.20;;;;;;;19.23;54.59;100229.16;4954646;28;20461;-65
2022/12/25 09:51:33;;;;;;;1.80;0.80;;;;;;;19.26;54.53;100219.78;4952795;28;20788;-64
2022/12/25 09:54:06;;;;;;;1.57;0.80;;;;;;;19.21;54.42;100222.13;4971312;28;20818;-64
2022/12/25 09:56:31;;;;;;;2.23;1.00;;;;;;;19.23;54.29;100217.72;4954112;28;20474;-65
2022/12/25 09:58:56;;;;;;;2.33;1.10;;;;;;;19.23;54.49;100208.28;4985469;28;20465;-65
2022/12/25 10:01:49;;;;;;;1.90;1.00;;;;;;;19.23;54.60;100203.41;4952550;28;20194;-64
2022/12/25 10:05:01;;;;;;;1.87;1.00;;;;;;;19.27;54.53;100203.44;4977415;28;20517;-64
2022/12/25 10:07:38;;;;;;;2.23;0.70;;;;;;;19.22;54.66;100193.13;4990217;28;20783;-64
2022/12/25 10:10:44;;;;;;;2.07;1.07;;;;;;;19.19;54.72;100188.19;4975757;28;20426;-64
2022/12/25 10:13:28;;;;;;;2.63;0.93;;;;;;;19.23;54.51;100191.94;4970977;28;20438;-64
2022/12/25 10:16:15;;;;;;;2.40;1.03;;;;;;;19.24;54.39;100193.59;4970055;28;20429;-64
2022/12/25 10:19:17;;;;;;;1.67;0.80;;;;;;;19.26;54.35;100196.06;4969832;28;21237;-64
2022/12/25 10:21:43;;;;;;;1.97;1.07;;;;;;;19.21;54.65;100182.06;4972266;28;20425;-65
2022/12/25 10:24:24;;;;;;;2.53;0.93;;;;;;;19.25;54.37;100183.78;4970430;28;20803;-65
2022/12/25 10:26:49;;;;;;;5.83;1.10;;;;;;;19.24;54.39;100175.59;4969534;28;20605;-66
2022/12/25 10:29:16;;;;;;;2.33;0.93;;;;;;;19.22;54.66;100178.81;4969050;28;20504;-65
2022/12/25 10:31:44;;;;;;;1.80;0.87;;;;;;;19.21;54.69;100177.16;4975038;28;20185;-64
2022/12/25 10:34:11;;;;;;;1.80;1.00;;;;;;;19.24;54.47;100172.72;4988736;28;20440;-65
2022/12/25 10:36:36;;;;;;;1.50;0.77;;;;;;;19.24;54.35;100176.41;4984078;28;20522;-64
2022/12/25 10:39:02;;;;;;;2.33;0.97;;;;;;;19.23;54.46;100174.78;4968711;28;20480;-64
2022/12/25 10:41:47;;;;;;;1.60;0.80;;;;;;;19.26;54.52;100173.97;4969005;28;20182;-65
2022/12/25 10:44:20;;;;;;;3.30;0.97;;;;;;;19.24;54.38;100176.41;4969401;28;20657;-64
2022/12/25 10:46:56;;;;;;;2.63;1.10;;;;;;;19.21;54.48;100171.44;4972637;28;20460;-65
2022/12/25 10:49:22;;;;;;;1.63;0.90;;;;;;;19.25;54.33;100165.78;4953267;28;20426;-65
2022/12/25 10:51:48;;;;;;;2.73;1.30;;;;;;;19.26;54.45;100156.00;4953097;28;20518;-65
2022/12/25 10:54:19;;;;;;;1.60;0.87;;;;;;;19.28;54.48;100153.56;4968562;28;20418;-64
2022/12/25 10:57:01;;;;;;;3.40;1.03;;;;;;;19.25;54.35;100148.59;4977045;28;20718;-65
2022/12/25 10:59:29;;;;;;;1.60;0.87;;;;;;;19.27;54.61;100149.06;4988141;28;20424;-65
2022/12/25 11:01:55;;;;;;;2.20;1.00;;;;;;;19.23;54.34;100146.16;4982035;28;20435;-64
2022/12/25 11:04:23;;;;;;;4.33;0.90;;;;;;;19.21;54.37;100139.13;4978921;28;20720;-65
2022/12/25 11:07:03;;;;;;;2.50;1.20;;;;;;;19.27;54.53;100140.47;4974287;28;20184;-65
2022/12/25 11:09:29;;;;;;;2.30;1.00;;;;;;;19.21;54.48;100137.09;4972591;28;20417;-65
2022/12/25 11:11:54;;;;;;;1.80;1.00;;;;;;;19.24;54.56;100130.63;4989489;28;20436;-65
2022/12/25 11:14:21;;;;;;;1.53;0.80;;;;;;;19.27;54.49;100124.09;4991884;28;20196;-65
2022/12/25 11:16:47;;;;;;;2.33;1.03;;;;;;;19.24;54.50;100115.47;4955881;28;20178;-65
2022/12/25 11:19:29;;;;;;;2.63;0.90;;;;;;;19.25;54.43;100117.94;4988141;28;20420;-65
2022/12/25 11:21:59;;;;;;;4.17;1.00;;;;;;;19.28;54.63;100114.31;4991344;28;20683;-65
2022/12/25 11:24:29;;;;;;;1.73;0.80;;;;;;;19.27;54.59;100115.50;4952901;28;20414;-65
2022/12/25 11:26:57;;;;;;;1.70;0.87;;;;;;;19.29;54.50;100129.44;4940012;28;20505;-65
2022/12/25 11:29:24;;;;;;;2.10;1.00;;;;;;;19.27;54.55;100124.09;5002568;28;20436;-66
2022/12/25 11:31:49;;;;;;;1.90;1.00;;;;;;;19.26;54.44;100111.00;5008562;28;20432;-65
2022/12/25 11:34:31;;;;;;;2.17;1.03;;;;;;;19.26;54.51;100104.47;4967902;28;20436;-65
2022/12/25 11:36:57;;;;;;;2.03;1.10;;;;;;;19.26;54.54;100099.56;4988069;28;20173;-65
2022/12/25 11:39:30;;;;;;;2.07;1.27;;;;;;;19.27;54.52;100086.09;4989458;28;20444;-65
2022/12/25 11:42:18;;;;;;;2.50;1.40;;;;;;;19.29;54.49;100086.50;5006711;28;20473;-64
2022/12/25 11:44:51;;;;;;;3.00;1.00;;;;;;;19.27;54.43;100084.03;4961494;28;20513;-65
2022/12/25 11:47:41;;;;;;;1.77;1.03;;;;;;;19.27;54.34;100081.16;4981647;28;20793;-64
2022/12/25 11:50:32;;;;;;;2.90;1.40;;;;;;;19.30;54.59;100066.09;5007705;28;20432;-65
2022/12/25 11:52:59;;;;;;;1.80;0.80;;;;;;;19.29;54.27;100063.59;4995292;28;20444;-65
2022/12/25 11:55:55;;;;;;;2.00;1.00;;;;;;;19.27;54.43;100052.53;4971712;28;20486;-65
2022/12/25 11:58:27;;;;;;;2.03;0.97;;;;;;;19.27;54.48;100048.88;4967884;28;20489;-65
2022/12/25 12:00:54;;;;;;;3.23;1.00;;;;;;;19.26;54.61;100048.03;4969454;28;20463;-65
2022/12/25 12:03:39;;;;;;;2.57;1.33;;;;;;;19.29;54.51;100043.56;4958677;28;20430;-65
2022/12/25 12:06:04;;;;;;;2.87;1.20;;;;;;;19.25;54.60;100042.69;4981795;28;20437;-65
2022/12/25 12:08:30;;;;;;;1.90;0.90;;;;;;;19.31;54.52;100038.31;4988630;28;20423;-66
2022/12/25 12:11:18;;;;;;;1.70;0.70;;;;;;;19.27;54.46;100041.09;4975178;28;20191;-65
2022/12/25 12:13:53;;;;;;;1.60;0.80;;;;;;;19.25;54.60;100040.69;4970172;28;20206;-65
2022/12/25 12:16:18;;;;;;;2.30;1.20;;;;;;;19.25;54.36;100045.56;4972433;28;20931;-65
2022/12/25 12:18:44;;;;;;;2.63;0.93;;;;;;;19.28;54.50;100057.06;4972163;28;20480;-65
2022/12/25 12:21:21;;;;;;;1.63;0.80;;;;;;;19.29;54.40;100064.44;4972866;28;20178;-65
2022/12/25 12:24:08;;;;;;;1.70;0.93;;;;;;;19.27;54.24;100064.00;4974720;28;20951;-65
2022/12/25 12:26:36;;;;;;;1.90;0.80;;;;;;;19.25;54.46;100057.00;4972583;28;20433;-65
2022/12/25 12:29:03;;;;;;;1.50;0.90;;;;;;;19.24;54.62;100041.91;4971394;28;20998;-65
2022/12/25 12:31:45;;;;;;;2.10;1.10;;;;;;;19.24;54.85;100035.34;4973376;28;20441;-65
2022/12/25 12:34:41;;;;;;;3.60;1.10;;;;;;;19.25;54.60;100029.22;4971034;28;20437;-65
2022/12/25 12:37:13;;;;;;;1.60;0.77;;;;;;;19.25;54.52;100023.50;4974302;28;20510;-65
2022/12/25 12:39:39;;;;;;;2.37;0.93;;;;;;;19.22;54.66;100021.41;4969422;28;21251;-64
2022/12/25 12:42:14;;;;;;;6.00;1.10;;;;;;;19.25;54.42;100019.81;4971104;28;20426;-64
2022/12/25 12:44:40;;;;;;;3.20;1.30;;;;;;;19.25;54.46;100019.81;4971555;28;20276;-65
2022/12/25 12:47:05;;;;;;;1.97;0.83;;;;;;;19.26;54.52;100025.16;4970967;28;20476;-64
2022/12/25 12:49:32;;;;;;;2.17;1.07;;;;;;;19.27;54.45;100034.56;4971133;28;20183;-65
2022/12/25 12:52:23;;;;;;;1.70;0.90;;;;;;;19.25;54.55;100040.69;4957545;28;20218;-65
2022/12/25 12:54:54;;;;;;;1.87;0.90;;;;;;;19.23;54.78;100039.44;4972238;28;20425;-65
2022/12/25 12:57:25;;;;;;;1.70;0.93;;;;;;;19.25;54.58;100040.69;4954864;28;20852;-65
2022/12/25 12:59:51;;;;;;;2.17;0.90;;;;;;;19.24;54.41;100039.03;5004321;28;20476;-65
2022/12/25 13:02:32;;;;;;;2.00;0.87;;;;;;;19.25;54.48;100045.56;5011228;28;20480;-65
2022/12/25 13:05:04;;;;;;;2.40;1.07;;;;;;;19.24;54.97;100043.94;4975716;28;20223;-65
2022/12/25 13:08:35;;;;;;;2.23;0.80;;;;;;;19.24;54.67;100055.38;4988064;28;20441;-65
2022/12/25 13:11:19;;;;;;;1.73;0.90;;;;;;;19.26;54.46;100041.50;4979603;28;20987;-64
2022/12/25 13:13:44;;;;;;;1.70;1.00;;;;;;;19.24;54.59;100041.91;4991092;28;20425;-65
2022/12/25 13:16:32;;;;;;;1.97;0.90;;;;;;;19.26;54.64;100038.66;4973459;28;20950;-65
2022/12/25 13:18:58;;;;;;;1.90;1.00;;;;;;;19.21;54.52;100028.31;4954401;28;20320;-65